Time;durP1;ratioP1;P1;durP2;ratioP2;P2;SDS_P1;SDS_P2;PMS_P1;PMS_P2;Temp;Humidity;BMP_temperature;BMP_pressure;BME280_temperature;BME280_humidity;BME280_pressure;Samples;Min_cycle;Max_cycle;Signal;HPM_P1;HPM_P2
2022/05/23 00:00:45;;;;;;;9.50;6.50;;;;;;;16.74;73.19;100684.38;4967238;28;20105;-67
2022/05/23 00:03:10;;;;;;;9.68;6.35;;;;;;;16.74;72.59;100681.78;4967143;28;20022;-66
2022/05/23 00:05:35;;;;;;;8.95;6.32;;;;;;;16.73;73.01;100672.16;4967342;28;20049;-67
2022/05/23 00:08:02;;;;;;;10.73;6.40;;;;;;;16.72;73.62;100675.66;4967475;28;20427;-67
2022/05/23 00:10:27;;;;;;;10.50;6.70;;;;;;;16.70;73.19;100674.78;4966926;28;20456;-67
2022/05/23 00:12:53;;;;;;;11.43;7.07;;;;;;;16.69;73.47;100675.66;4964481;28;20034;-67
2022/05/23 00:15:20;;;;;;;7.57;5.75;;;;;;;16.68;74.14;100684.34;4967360;28;20026;-67
2022/05/23 00:17:45;;;;;;;8.43;5.90;;;;;;;16.64;73.37;100683.47;4949196;28;20019;-67
2022/05/23 00:20:14;;;;;;;8.70;6.22;;;;;;;16.62;73.93;100686.97;4964544;28;20368;-67
2022/05/23 00:22:40;;;;;;;7.55;6.07;;;;;;;16.58;74.19;100685.19;4967194;28;20067;-67
2022/05/23 00:25:08;;;;;;;12.35;6.60;;;;;;;16.54;75.57;100677.34;4967429;28;20051;-67
2022/05/23 00:27:37;;;;;;;9.82;5.97;;;;;;;16.51;74.29;100669.47;4965326;28;20472;-67
2022/05/23 00:30:04;;;;;;;8.23;6.07;;;;;;;16.51;74.47;100665.97;4966778;28;20027;-67
2022/05/23 00:35:19;;;;;;;9.00;6.65;;;;;;;16.49;76.01;100665.97;4967636;28;20038;-68
2022/05/23 00:37:46;;;;;;;8.85;5.75;;;;;;;16.47;76.40;100661.59;4965068;28;20027;-67
2022/05/23 00:40:43;;;;;;;8.15;5.85;;;;;;;16.46;75.85;100659.84;4967089;28;20039;-67
2022/05/23 00:43:27;;;;;;;10.48;6.30;;;;;;;16.44;76.46;100662.47;4965842;28;20030;-67
2022/05/23 00:46:01;;;;;;;8.32;6.05;;;;;;;16.44;77.17;100660.72;4966973;28;20418;-67
2022/05/23 00:48:29;;;;;;;9.32;6.30;;;;;;;16.47;77.68;100659.88;4964254;28;20023;-67
2022/05/23 00:50:59;;;;;;;9.95;6.97;;;;;;;16.45;78.37;100656.34;4966944;28;20450;-67
2022/05/23 00:53:53;;;;;;;10.88;6.57;;;;;;;16.40;79.21;100656.34;4966527;28;20475;-67
2022/05/23 00:56:22;;;;;;;10.32;6.78;;;;;;;16.37;79.63;100651.09;4965911;28;20038;-67
2022/05/23 00:58:51;;;;;;;9.90;6.55;;;;;;;16.31;79.61;100638.88;4967570;28;20104;-67
2022/05/23 01:01:20;;;;;;;11.73;6.65;;;;;;;16.30;79.61;100637.13;4969715;28;20032;-67
2022/05/23 01:03:46;;;;;;;7.93;6.80;;;;;;;16.28;79.26;100638.84;4970637;28;20457;-67
2022/05/23 01:06:11;;;;;;;9.57;6.72;;;;;;;16.24;79.64;100633.59;4970366;28;20027;-67
2022/05/23 01:08:39;;;;;;;9.45;7.15;;;;;;;16.19;80.08;100638.81;4970342;28;20035;-66
2022/05/23 01:11:06;;;;;;;11.27;7.47;;;;;;;16.14;79.62;100640.50;4968107;28;20023;-67
2022/05/23 01:13:32;;;;;;;9.23;6.65;;;;;;;16.11;79.48;100648.34;4970046;28;20066;-67
2022/05/23 01:15:57;;;;;;;12.65;6.40;;;;;;;16.08;80.40;100647.44;4970159;28;20054;-67
2022/05/23 01:18:22;;;;;;;10.65;6.57;;;;;;;16.06;80.50;100659.63;4970324;28;20031;-67
2022/05/23 01:20:57;;;;;;;10.93;6.93;;;;;;;16.04;81.05;100658.75;4969921;28;20419;-67
2022/05/23 01:23:56;;;;;;;9.63;7.50;;;;;;;16.03;80.52;100656.16;4970465;28;20023;-67
2022/05/23 01:26:21;;;;;;;12.52;7.30;;;;;;;16.04;79.78;100652.66;4968756;28;20073;-67
2022/05/23 01:28:47;;;;;;;11.77;7.05;;;;;;;16.02;79.75;100644.81;4969872;28;20050;-67
2022/05/23 01:31:13;;;;;;;11.35;6.95;;;;;;;16.00;79.63;100637.81;4969776;28;20031;-67
2022/05/23 01:33:39;;;;;;;9.88;7.05;;;;;;;15.97;80.22;100636.03;4967329;28;20038;-66
2022/05/23 01:36:09;;;;;;;9.45;7.22;;;;;;;15.95;79.28;100629.94;4969720;28;20462;-67
2022/05/23 01:38:34;;;;;;;11.38;7.15;;;;;;;15.88;79.88;100625.53;4970214;28;20105;-67
2022/05/23 01:41:00;;;;;;;10.27;6.80;;;;;;;15.86;79.24;100617.69;4969784;28;20534;-67
2022/05/23 01:43:26;;;;;;;10.85;6.70;;;;;;;15.87;79.45;100621.16;4969993;28;20014;-66
2022/05/23 01:45:51;;;;;;;11.80;7.43;;;;;;;15.87;79.52;100621.16;4969719;28;20022;-67
2022/05/23 01:48:16;;;;;;;7.63;6.82;;;;;;;15.85;80.15;100624.63;4969705;28;20018;-67
2022/05/23 01:50:41;;;;;;;8.07;7.00;;;;;;;15.81;80.91;100622.84;4969484;28;20289;-67
2022/05/23 01:53:07;;;;;;;9.43;7.45;;;;;;;15.75;81.33;100628.06;4969359;28;20065;-67
2022/05/23 01:55:34;;;;;;;10.07;7.00;;;;;;;15.70;81.80;100629.75;4969411;28;20031;-67
2022/05/23 01:57:59;;;;;;;11.18;7.97;;;;;;;15.67;82.82;100627.13;4969542;28;20482;-67
2022/05/23 02:03:09;;;;;;;11.77;7.45;;;;;;;15.59;82.44;100617.50;4969694;28;20434;-67
2022/05/23 02:05:34;;;;;;;9.07;8.13;;;;;;;15.56;83.21;100622.69;4969421;28;20018;-67
2022/05/23 02:08:00;;;;;;;12.57;7.60;;;;;;;15.53;83.25;100612.22;4966661;28;20018;-67
2022/05/23 02:10:27;;;;;;;12.80;8.43;;;;;;;15.52;82.83;100607.88;4969364;28;20039;-67
2022/05/23 02:12:53;;;;;;;9.88;7.90;;;;;;;15.49;83.48;100605.22;4969405;28;20463;-67
2022/05/23 02:15:19;;;;;;;10.00;8.18;;;;;;;15.46;84.35;100610.41;4968968;28;20034;-67
2022/05/23 02:17:44;;;;;;;10.70;8.38;;;;;;;15.42;84.13;100616.47;4966656;28;20187;-66
2022/05/23 02:20:11;;;;;;;10.57;8.55;;;;;;;15.39;83.74;100619.06;4968468;28;20153;-69
2022/05/23 02:22:37;;;;;;;12.15;8.00;;;;;;;15.37;83.02;100606.00;4969075;28;20062;-69
2022/05/23 02:25:03;;;;;;;11.65;8.68;;;;;;;15.36;82.66;100610.34;4969346;28;20431;-69
2022/05/23 02:27:30;;;;;;;10.30;7.80;;;;;;;15.38;82.44;100602.50;4968976;28;20704;-69
2022/05/23 02:29:56;;;;;;;10.57;8.18;;;;;;;15.39;83.43;100598.16;4966228;28;20106;-67
2022/05/23 02:32:21;;;;;;;9.60;8.15;;;;;;;15.35;84.31;100605.09;4968313;28;20113;-66
2022/05/23 02:34:46;;;;;;;7.78;7.07;;;;;;;15.31;84.41;100598.97;4968761;28;20451;-67
2022/05/23 02:37:12;;;;;;;11.20;7.85;;;;;;;15.28;85.32;100596.34;4983857;28;20026;-67
2022/05/23 02:39:37;;;;;;;9.43;8.32;;;;;;;15.23;84.48;100600.66;4967681;28;20065;-67
2022/05/23 02:42:03;;;;;;;10.95;7.65;;;;;;;15.17;85.53;100587.53;4964440;28;20483;-67
2022/05/23 02:44:28;;;;;;;10.82;8.60;;;;;;;15.12;86.56;100585.78;4968365;28;20074;-67
2022/05/23 02:46:54;;;;;;;9.10;8.30;;;;;;;15.11;86.27;100578.81;4968545;28;20038;-66
2022/05/23 02:49:20;;;;;;;14.45;9.15;;;;;;;15.09;85.74;100579.66;4968464;28;20034;-66
2022/05/23 02:51:45;;;;;;;9.73;8.57;;;;;;;15.07;86.47;100566.59;4968378;28;20058;-67
2022/05/23 02:54:11;;;;;;;11.45;9.07;;;;;;;15.04;86.34;100561.34;4968455;28;20026;-67
2022/05/23 02:56:36;;;;;;;12.23;9.75;;;;;;;15.03;86.52;100559.59;4968506;28;20042;-67
2022/05/23 02:59:02;;;;;;;12.00;9.48;;;;;;;15.04;86.23;100540.47;4968335;28;20534;-66
2022/05/23 03:01:27;;;;;;;10.90;9.18;;;;;;;15.04;86.64;100539.63;4967927;28;20043;-66
2022/05/23 03:03:53;;;;;;;11.05;9.73;;;;;;;14.99;87.53;100532.59;4965167;28;20141;-66
2022/05/23 03:06:18;;;;;;;13.85;9.50;;;;;;;14.97;87.91;100517.78;4968758;28;20046;-66
2022/05/23 03:08:44;;;;;;;12.05;10.27;;;;;;;14.95;87.57;100509.09;4968250;28;20370;-66
2022/05/23 03:11:10;;;;;;;14.23;9.48;;;;;;;14.93;88.15;100510.81;4968195;28;20382;-67
2022/05/23 03:13:36;;;;;;;14.07;9.20;;;;;;;14.91;87.87;100489.06;4965413;28;20031;-67
2022/05/23 03:16:06;;;;;;;13.90;9.75;;;;;;;14.87;88.27;100486.44;4967773;28;20687;-67
2022/05/23 03:18:31;;;;;;;12.23;9.70;;;;;;;14.84;88.66;100482.91;4967839;28;20078;-66
2022/05/23 03:21:00;;;;;;;14.38;10.25;;;;;;;14.79;88.90;100480.22;4967475;28;20328;-67
2022/05/23 03:28:53;;;;;;;11.13;9.52;;;;;;;14.73;90.13;100477.56;4967389;28;20073;-66
2022/05/23 03:31:18;;;;;;;12.65;10.38;;;;;;;14.71;90.11;100474.97;4965926;28;20035;-66
2022/05/23 03:33:44;;;;;;;13.88;10.10;;;;;;;14.72;89.97;100460.16;4965953;28;20027;-69
2022/05/23 03:36:10;;;;;;;10.75;9.65;;;;;;;14.73;89.66;100456.72;4965142;28;20035;-69
2022/05/23 03:38:35;;;;;;;11.80;9.88;;;;;;;14.74;89.45;100458.44;4960912;28;20034;-70
2022/05/23 03:41:05;;;;;;;12.40;10.40;;;;;;;14.72;89.94;100455.84;4964026;28;20122;-69
2022/05/23 03:43:30;;;;;;;13.70;10.18;;;;;;;14.71;90.80;100442.78;4965794;28;20553;-70
2022/05/23 03:46:03;;;;;;;12.82;10.45;;;;;;;14.69;90.57;100441.88;4965206;28;20035;-69
2022/05/23 03:48:28;;;;;;;13.15;10.88;;;;;;;14.69;90.28;100444.50;4964438;28;20026;-67
2022/05/23 03:50:54;;;;;;;14.68;10.43;;;;;;;14.70;91.24;100441.00;4975940;28;20027;-66
2022/05/23 03:53:19;;;;;;;11.30;9.57;;;;;;;14.71;89.90;100433.22;4967945;28;20306;-67
2022/05/23 03:55:44;;;;;;;13.45;9.63;;;;;;;14.72;90.78;100431.47;4964377;28;20034;-66
2022/05/23 03:58:10;;;;;;;10.80;9.68;;;;;;;14.73;91.58;100435.84;4967578;28;20035;-66
2022/05/23 04:00:35;;;;;;;14.75;10.32;;;;;;;14.71;91.39;100434.97;4966871;28;20027;-66
2022/05/23 04:03:01;;;;;;;13.48;10.40;;;;;;;14.70;91.87;100430.59;4967525;28;20027;-66
2022/05/23 04:05:26;;;;;;;13.52;10.63;;;;;;;14.70;91.72;100430.59;4967270;28;20054;-66
2022/05/23 04:07:51;;;;;;;13.57;10.65;;;;;;;14.69;92.20;100426.25;4966892;28;20031;-66
2022/05/23 04:10:17;;;;;;;14.43;11.38;;;;;;;14.69;91.72;100418.41;4982021;28;20058;-66
2022/05/23 04:12:44;;;;;;;12.98;10.82;;;;;;;14.69;92.88;100421.03;4967604;28;20031;-66
2022/05/23 04:15:10;;;;;;;11.13;10.07;;;;;;;14.67;92.96;100420.13;4966927;28;20210;-66
2022/05/23 04:17:36;;;;;;;11.40;10.30;;;;;;;14.67;92.84;100414.91;4964639;28;20355;-67
2022/05/23 04:20:01;;;;;;;12.90;11.05;;;;;;;14.62;93.05;100413.16;4966740;28;20055;-67
2022/05/23 04:22:26;;;;;;;13.18;10.80;;;;;;;14.59;93.98;100402.69;4967299;28;20066;-67
2022/05/23 04:24:51;;;;;;;13.98;10.82;;;;;;;14.57;93.69;100399.19;4966682;28;20035;-67
2022/05/23 04:27:17;;;;;;;13.68;10.85;;;;;;;14.56;93.93;100402.69;4967173;28;20448;-67
2022/05/23 04:29:42;;;;;;;15.27;10.50;;;;;;;14.58;94.10;100403.56;4964564;28;20030;-67
2022/05/23 04:35:12;;;;;;;11.65;10.60;;;;;;;14.59;94.71;100397.47;4966998;28;20107;-67
2022/05/23 04:37:38;;;;;;;13.82;10.50;;;;;;;14.63;95.26;100388.84;4970691;28;20104;-67
2022/05/23 04:40:04;;;;;;;12.50;10.75;;;;;;;14.65;94.96;100397.53;4970115;28;20034;-67
2022/05/23 04:42:30;;;;;;;11.70;10.25;;;;;;;14.69;95.56;100402.78;4971174;28;20042;-68
2022/05/23 04:44:55;;;;;;;12.40;10.90;;;;;;;14.72;95.68;100393.25;4970320;28;20023;-67
2022/05/23 04:50:04;;;;;;;12.68;10.20;;;;;;;14.81;94.81;100370.69;4963033;28;20446;-67
2022/05/23 04:52:30;;;;;;;12.13;10.88;;;;;;;14.85;94.30;100377.72;4970609;28;20039;-66
2022/05/23 04:54:55;;;;;;;11.30;10.15;;;;;;;14.88;95.16;100375.13;4968486;28;20035;-66
2022/05/23 04:57:21;;;;;;;12.13;10.48;;;;;;;14.93;95.57;100365.59;4970695;28;20035;-66
2022/05/23 04:59:46;;;;;;;14.48;11.10;;;;;;;14.97;94.54;100375.19;4970505;28;20461;-67
2022/05/23 05:02:12;;;;;;;13.30;11.15;;;;;;;15.02;94.29;100372.59;4971137;28;20027;-69
2022/05/23 05:04:38;;;;;;;12.88;11.13;;;;;;;15.06;94.68;100369.16;4970591;28;20031;-66
2022/05/23 05:07:04;;;;;;;14.50;10.30;;;;;;;15.09;94.07;100366.56;4970883;28;20030;-66
2022/05/23 05:09:30;;;;;;;12.38;10.75;;;;;;;15.15;94.08;100364.88;4969466;28;20394;-67
2022/05/23 05:11:55;;;;;;;11.80;10.75;;;;;;;15.15;94.50;100370.09;4971008;28;20027;-66
2022/05/23 05:14:20;;;;;;;13.88;11.10;;;;;;;15.20;93.46;100357.94;4970490;28;20031;-66
2022/05/23 05:16:46;;;;;;;13.68;10.60;;;;;;;15.25;94.30;100358.81;4970370;28;20523;-66
2022/05/23 05:19:11;;;;;;;11.52;10.02;;;;;;;15.29;93.00;100347.50;4970610;28;20043;-67
2022/05/23 05:21:37;;;;;;;12.45;10.68;;;;;;;15.32;94.29;100336.22;4970489;28;20039;-66
2022/05/23 05:24:04;;;;;;;11.90;10.10;;;;;;;15.35;93.84;100325.78;4970539;28;20665;-67
2022/05/23 05:26:29;;;;;;;10.93;9.80;;;;;;;15.39;93.34;100321.47;4970569;28;20113;-67
2022/05/23 05:28:54;;;;;;;12.30;10.48;;;;;;;15.40;93.91;100321.47;4970229;28;20065;-66
2022/05/23 05:31:37;;;;;;;12.02;10.75;;;;;;;15.44;94.02;100315.38;4970402;28;20038;-66
2022/05/23 05:34:08;;;;;;;13.93;11.02;;;;;;;15.47;94.06;100319.75;4970477;28;20125;-67
2022/05/23 05:36:39;;;;;;;13.27;10.52;;;;;;;15.53;94.43;100324.13;4970214;28;20534;-67
2022/05/23 05:39:06;;;;;;;11.63;10.63;;;;;;;15.55;94.39;100322.38;4970051;28;20089;-66
2022/05/23 05:41:37;;;;;;;13.07;10.82;;;;;;;15.59;94.44;100309.34;4970647;28;20031;-66
2022/05/23 05:44:07;;;;;;;11.07;9.95;;;;;;;15.65;93.86;100303.25;4969395;28;20038;-67
2022/05/23 05:46:37;;;;;;;16.60;10.73;;;;;;;15.67;93.28;100305.91;4967472;28;20029;-67
2022/05/23 05:49:05;;;;;;;11.88;10.48;;;;;;;15.65;93.40;100297.19;4969480;28;20027;-67
2022/05/23 05:51:34;;;;;;;11.20;10.15;;;;;;;15.73;93.03;100298.06;4952594;28;20130;-69
2022/05/23 05:53:59;;;;;;;10.63;9.55;;;;;;;15.80;92.78;100288.47;4968567;28;20372;-69
2022/05/23 05:56:25;;;;;;;12.13;10.30;;;;;;;15.82;92.29;100285.03;4970178;28;20038;-67
2022/05/23 05:58:50;;;;;;;11.20;9.98;;;;;;;15.89;93.13;100279.78;4969063;28;20101;-67
2022/05/23 06:01:15;;;;;;;12.02;9.73;;;;;;;15.93;93.30;100276.31;4968981;28;20031;-66
2022/05/23 06:03:41;;;;;;;11.60;9.40;;;;;;;16.02;92.67;100288.53;4969830;28;20038;-66
2022/05/23 06:11:35;;;;;;;10.60;9.45;;;;;;;16.15;91.51;100279.84;4969140;28;20229;-66
2022/05/23 06:14:03;;;;;;;12.40;9.27;;;;;;;16.25;92.44;100278.09;4970025;28;20027;-66
2022/05/23 06:16:32;;;;;;;10.15;8.70;;;;;;;16.33;90.56;100272.88;4969524;28;20097;-67
2022/05/23 06:18:58;;;;;;;11.02;9.30;;;;;;;16.40;90.43;100271.13;4968396;28;20051;-66
2022/05/23 06:21:25;;;;;;;12.02;9.00;;;;;;;16.43;88.66;100265.88;4969228;28;20403;-66
2022/05/23 06:23:51;;;;;;;9.82;8.70;;;;;;;16.56;88.13;100264.13;4968730;28;20022;-66
2022/05/23 06:26:21;;;;;;;9.98;8.70;;;;;;;16.66;87.49;100262.34;4968920;28;20073;-67
2022/05/23 06:28:47;;;;;;;9.93;8.85;;;;;;;16.75;86.76;100253.59;4969559;28;20066;-67
2022/05/23 06:31:13;;;;;;;9.27;8.15;;;;;;;16.88;87.41;100251.81;4969494;28;20158;-67
2022/05/23 06:33:38;;;;;;;8.93;7.38;;;;;;;16.98;86.01;100257.91;4969844;28;20105;-67
2022/05/23 06:36:05;;;;;;;8.63;7.68;;;;;;;17.06;84.23;100248.25;4969640;28;20065;-67
2022/05/23 06:38:32;;;;;;;9.13;7.47;;;;;;;17.18;83.81;100238.66;4967998;28;20026;-67
2022/05/23 06:40:57;;;;;;;7.50;6.78;;;;;;;17.26;83.92;100242.09;4969152;28;20031;-67
2022/05/23 06:43:23;;;;;;;11.40;7.82;;;;;;;17.31;83.59;100239.44;4969053;28;20042;-67
2022/05/23 06:45:48;;;;;;;8.40;7.60;;;;;;;17.35;82.81;100236.81;4969240;28;20031;-66
2022/05/23 06:48:14;;;;;;;8.20;7.40;;;;;;;17.36;81.72;100238.53;4968897;28;20034;-67
2022/05/23 06:50:40;;;;;;;9.50;8.40;;;;;;;17.39;81.71;100242.91;4969022;28;20085;-67
2022/05/23 06:53:05;;;;;;;10.52;8.20;;;;;;;17.44;82.80;100241.13;4968279;28;20507;-66
2022/05/23 06:55:30;;;;;;;12.45;7.97;;;;;;;17.52;82.07;100239.31;4968930;28;20381;-67
2022/05/23 06:57:56;;;;;;;11.45;8.00;;;;;;;17.59;82.22;100250.59;4969044;28;20053;-66
2022/05/23 07:00:21;;;;;;;9.02;8.13;;;;;;;17.69;81.70;100248.81;4968135;28;20035;-67
2022/05/23 07:02:47;;;;;;;8.00;6.88;;;;;;;17.81;82.05;100254.84;4968452;28;20137;-66
2022/05/23 07:13:25;;;;;;;9.48;6.85;;;;;;;17.90;82.11;100243.44;4950665;28;20034;-67
2022/05/23 07:15:51;;;;;;;11.50;7.03;;;;;;;17.86;81.44;100239.97;4950267;28;20034;-68
2022/05/23 07:18:18;;;;;;;7.78;6.43;;;;;;;17.88;81.89;100243.44;4950509;28;20023;-67
2022/05/23 07:20:44;;;;;;;6.82;6.13;;;;;;;17.92;82.71;100239.91;4949636;28;20174;-67
2022/05/23 07:23:10;;;;;;;6.75;6.05;;;;;;;17.94;81.56;100240.75;4950146;28;20031;-66
2022/05/23 07:25:36;;;;;;;8.40;5.88;;;;;;;17.99;81.89;100238.09;4950007;28;21225;-67
2022/05/23 07:28:01;;;;;;;9.43;6.53;;;;;;;17.98;81.30;100239.84;4950461;28;20475;-67
2022/05/23 07:30:27;;;;;;;8.25;5.82;;;;;;;18.02;80.84;100237.22;4950181;28;20468;-67
2022/05/23 07:32:52;;;;;;;8.38;6.20;;;;;;;18.04;81.55;100235.44;4949814;28;20026;-67
2022/05/23 07:35:18;;;;;;;6.70;5.85;;;;;;;18.07;81.63;100240.66;4950068;28;20423;-67
2022/05/23 07:37:43;;;;;;;8.45;6.40;;;;;;;18.11;81.50;100237.97;4950008;28;20031;-66
2022/05/23 07:40:09;;;;;;;9.30;6.10;;;;;;;18.15;81.17;100243.25;4949947;28;20054;-66
2022/05/23 07:42:35;;;;;;;7.00;6.30;;;;;;;18.21;80.34;100236.19;4949230;28;20050;-66
2022/05/23 07:45:01;;;;;;;8.45;6.30;;;;;;;18.30;79.45;100242.22;4950241;28;20475;-66
2022/05/23 07:47:27;;;;;;;10.05;7.10;;;;;;;18.35;79.03;100240.41;4949621;28;20114;-66
2022/05/23 07:49:52;;;;;;;7.05;6.35;;;;;;;18.38;76.10;100235.16;4949695;28;20031;-67
2022/05/23 07:52:17;;;;;;;11.07;6.75;;;;;;;18.52;78.16;100221.91;4949371;28;20467;-67
2022/05/23 08:02:55;;;;;;;7.30;6.53;;;;;;;19.64;72.01;100222.22;4968248;28;20422;-66
2022/05/23 08:05:21;;;;;;;8.27;5.57;;;;;;;19.78;72.46;100215.88;4968200;28;20035;-66
2022/05/23 08:07:46;;;;;;;7.72;6.03;;;;;;;19.86;71.23;100216.59;4967962;28;20101;-67
2022/05/23 08:10:12;;;;;;;9.73;6.18;;;;;;;20.03;70.21;100212.81;4967937;28;20027;-67
2022/05/23 08:12:38;;;;;;;7.47;5.63;;;;;;;20.15;69.77;100204.75;4968117;28;20034;-67
2022/05/23 08:15:04;;;;;;;10.10;6.20;;;;;;;20.26;69.85;100196.66;4968440;28;20645;-67
2022/05/23 08:17:30;;;;;;;6.80;5.65;;;;;;;20.44;69.89;100196.31;4966183;28;20035;-67
2022/05/23 08:19:55;;;;;;;5.97;4.90;;;;;;;20.52;68.83;100189.16;4967792;28;20053;-67
2022/05/23 08:22:22;;;;;;;6.70;5.63;;;;;;;20.52;66.92;100186.53;4967085;28;20077;-66
2022/05/23 08:24:48;;;;;;;6.50;5.07;;;;;;;20.48;68.77;100185.72;4965750;28;20113;-67
2022/05/23 08:27:13;;;;;;;6.50;4.72;;;;;;;20.46;67.98;100176.13;4949498;28;20109;-68
2022/05/23 08:29:39;;;;;;;6.35;5.10;;;;;;;20.28;67.66;100194.00;4967927;28;20059;-68
2022/05/23 08:32:06;;;;;;;7.03;5.10;;;;;;;20.18;68.38;100189.81;4966438;28;20070;-67
2022/05/23 08:34:32;;;;;;;7.35;5.43;;;;;;;20.11;69.71;100183.81;4967759;28;20442;-67
2022/05/23 08:36:58;;;;;;;6.78;5.30;;;;;;;20.03;69.45;100179.53;4966613;28;20273;-67
2022/05/23 08:39:25;;;;;;;6.88;5.20;;;;;;;19.99;69.75;100177.81;4967195;28;20502;-68
2022/05/23 08:41:51;;;;;;;8.48;5.20;;;;;;;19.77;69.36;100161.59;4967500;28;20618;-69
2022/05/23 08:44:39;;;;;;;7.00;5.35;;;;;;;19.74;70.18;100143.22;4967866;28;20467;-68
2022/05/23 08:47:11;;;;;;;11.23;5.72;;;;;;;19.67;70.34;100142.47;4966726;28;20330;-69
2022/05/23 08:49:46;;;;;;;8.05;5.13;;;;;;;19.56;71.55;100147.91;4968211;28;20422;-69
2022/05/23 08:52:19;;;;;;;5.85;4.82;;;;;;;19.51;72.53;100147.97;4968304;28;20097;-69
2022/05/23 08:55:02;;;;;;;10.65;6.45;;;;;;;19.44;70.63;100144.59;4968002;28;20093;-68
2022/05/23 08:57:35;;;;;;;16.90;7.35;;;;;;;19.44;72.87;100147.22;4967241;28;20037;-68
2022/05/23 09:00:06;;;;;;;8.15;5.30;;;;;;;19.47;71.77;100137.53;4966701;28;20033;-68
2022/05/23 09:02:56;;;;;;;10.52;6.20;;;;;;;19.49;71.46;100134.00;4966524;28;20053;-68
2022/05/23 09:05:29;;;;;;;9.70;6.18;;;;;;;19.54;71.98;100131.28;4966554;28;20039;-69
2022/05/23 09:07:58;;;;;;;6.43;5.63;;;;;;;19.65;72.01;100125.84;4966993;28;20275;-69
2022/05/23 09:10:36;;;;;;;8.82;6.13;;;;;;;19.76;71.14;100115.16;4967501;28;20031;-68
2022/05/23 09:13:02;;;;;;;9.68;6.18;;;;;;;19.74;71.40;100114.31;4967770;28;20497;-69
2022/05/23 09:15:28;;;;;;;8.43;5.82;;;;;;;19.85;72.21;100116.75;4966988;28;20047;-68
2022/05/23 09:17:57;;;;;;;7.80;5.68;;;;;;;19.76;69.98;100109.91;4967717;28;20035;-68
2022/05/23 09:20:35;;;;;;;7.78;5.82;;;;;;;19.69;71.07;100101.25;4968809;28;20050;-69
2022/05/23 09:23:06;;;;;;;10.85;5.32;;;;;;;19.67;71.14;100098.66;4970632;28;20034;-68
2022/05/23 09:25:32;;;;;;;6.93;5.65;;;;;;;19.55;70.71;100098.88;4971013;28;20050;-68
2022/05/23 09:28:22;;;;;;;10.55;5.57;;;;;;;19.49;70.90;100098.97;4970609;28;20027;-68
2022/05/23 09:30:57;;;;;;;7.32;5.45;;;;;;;19.51;70.03;100097.19;4970635;28;20457;-69
2022/05/23 09:33:22;;;;;;;6.75;4.95;;;;;;;19.53;71.57;100092.78;4952438;28;20418;-69
2022/05/23 09:35:54;;;;;;;10.23;5.85;;;;;;;19.52;71.99;100085.78;4952295;28;20138;-68
2022/05/23 09:38:29;;;;;;;7.50;5.28;;;;;;;19.47;72.17;100074.47;4952105;28;20035;-68
2022/05/23 09:40:55;;;;;;;7.60;5.38;;;;;;;19.52;72.26;100064.75;4951681;28;20481;-68
2022/05/23 09:49:02;;;;;;;9.68;6.22;;;;;;;19.85;72.75;100046.66;4965244;28;20054;-69
2022/05/23 09:51:27;;;;;;;10.32;6.32;;;;;;;20.05;71.09;100040.16;4970122;28;20383;-68
2022/05/23 09:53:53;;;;;;;13.00;6.57;;;;;;;20.14;70.69;100044.38;4970633;28;20019;-68
2022/05/23 09:56:27;;;;;;;10.88;5.72;;;;;;;20.31;71.07;100036.09;4970330;28;20106;-69
2022/05/23 09:58:53;;;;;;;8.48;5.90;;;;;;;20.40;69.27;100030.66;4970110;28;20054;-69
2022/05/23 10:01:32;;;;;;;7.80;5.97;;;;;;;20.42;68.87;100019.25;4970138;28;20090;-68
2022/05/23 10:03:59;;;;;;;5.55;4.95;;;;;;;20.66;69.54;100016.94;4970139;28;20045;-68
2022/05/23 10:06:35;;;;;;;7.72;5.40;;;;;;;20.93;68.73;100011.94;4970409;28;20354;-67
2022/05/23 10:09:01;;;;;;;8.57;5.97;;;;;;;21.19;67.18;100013.09;4969451;28;20402;-68
2022/05/23 10:11:36;;;;;;;7.03;5.30;;;;;;;21.48;66.51;100008.81;4969996;28;20023;-68
2022/05/23 10:14:14;;;;;;;7.10;4.85;;;;;;;21.76;64.15;100012.47;4969778;28;20479;-68
2022/05/23 10:16:54;;;;;;;6.90;5.20;;;;;;;22.10;63.27;100010.66;4969942;28;20593;-68
2022/05/23 10:19:27;;;;;;;5.05;4.53;;;;;;;22.30;63.91;99997.75;4969322;28;20046;-68
2022/05/23 10:22:24;;;;;;;5.95;4.28;;;;;;;22.53;59.20;99996.16;4969667;28;20023;-68
2022/05/23 10:24:59;;;;;;;7.90;4.22;;;;;;;22.66;58.97;100009.00;4965413;28;20049;-68
2022/05/23 10:27:47;;;;;;;8.00;3.65;;;;;;;22.95;60.39;100012.50;4969598;28;20035;-68
2022/05/23 10:30:17;;;;;;;8.15;4.45;;;;;;;23.03;57.56;100012.22;4969498;28;20033;-69
2022/05/23 10:32:51;;;;;;;6.88;4.85;;;;;;;23.14;57.72;100003.94;4968762;28;20554;-68
2022/05/23 10:35:29;;;;;;;6.57;4.63;;;;;;;23.29;57.47;100006.97;4952338;28;20043;-68
2022/05/23 10:42:07;;;;;;;6.32;5.20;;;;;;;23.38;56.56;100006.66;4969416;28;20026;-69
2022/05/23 10:43:40;;;;;;;6.05;5.18;;;;;;;23.69;58.21;99997.63;4969746;28;20126;-69
2022/05/23 10:46:05;;;;;;;6.07;4.90;;;;;;;23.78;57.21;99987.66;4968792;28;20031;-68
2022/05/23 10:49:11;;;;;;;8.52;5.20;;;;;;;23.87;56.81;99971.47;4969214;28;20521;-69
2022/05/23 10:51:39;;;;;;;5.63;4.45;;;;;;;24.09;57.05;99960.03;4969187;28;20387;-68
2022/05/23 10:54:35;;;;;;;7.32;4.93;;;;;;;24.06;55.71;99954.88;4969119;28;20117;-68
2022/05/23 10:57:05;;;;;;;7.13;4.45;;;;;;;24.32;55.67;99939.81;4969722;28;20038;-68
2022/05/23 10:59:53;;;;;;;7.20;4.10;;;;;;;24.26;54.20;99945.31;4968831;28;20130;-68
2022/05/23 11:02:30;;;;;;;7.63;5.32;;;;;;;24.37;55.06;99940.47;4968877;28;20035;-68
2022/05/23 11:05:16;;;;;;;6.78;4.22;;;;;;;24.36;53.08;99929.94;4969235;28;20030;-68
2022/05/23 11:08:00;;;;;;;5.75;3.97;;;;;;;24.40;54.01;99929.75;4968934;28;20038;-68
2022/05/23 11:11:00;;;;;;;5.25;3.72;;;;;;;24.53;54.39;99916.88;4969109;28;20118;-68
2022/05/23 11:13:49;;;;;;;6.32;3.55;;;;;;;24.54;53.62;99907.13;4969134;28;20397;-69
2022/05/23 11:16:38;;;;;;;5.93;4.00;;;;;;;24.83;54.94;99886.50;4968836;28;20026;-69
2022/05/23 11:19:25;;;;;;;4.63;3.20;;;;;;;25.06;52.54;99876.72;4968585;28;20050;-69
2022/05/23 11:22:02;;;;;;;6.20;3.42;;;;;;;25.23;50.65;99868.03;4949975;28;20455;-68
2022/05/23 11:24:46;;;;;;;5.60;3.33;;;;;;;25.07;49.07;99865.22;4950001;28;20446;-68
2022/05/23 11:35:42;;;;;;;6.20;3.22;;;;;;;24.95;50.21;99845.44;4969003;28;20181;-68
2022/05/23 11:38:09;;;;;;;4.18;2.83;;;;;;;24.70;50.61;99844.66;4950106;28;20030;-68
2022/05/23 11:40:37;;;;;;;5.03;3.05;;;;;;;24.61;49.22;99846.88;4949780;28;20054;-68
2022/05/23 11:43:05;;;;;;;8.10;2.97;;;;;;;24.45;49.90;99850.13;4948577;28;20086;-68
2022/05/23 11:45:57;;;;;;;5.30;2.70;;;;;;;24.52;52.13;99840.19;4949786;28;20050;-68
2022/05/23 11:48:39;;;;;;;5.25;2.90;;;;;;;24.71;50.89;99829.66;4949745;28;20082;-68
2022/05/23 11:51:30;;;;;;;5.75;2.50;;;;;;;24.78;50.56;99824.94;4948809;28;20042;-68
2022/05/23 11:54:01;;;;;;;4.70;2.17;;;;;;;24.69;49.87;99827.06;4963678;28;20475;-68
2022/05/23 11:56:51;;;;;;;4.45;2.28;;;;;;;24.61;49.60;99818.56;4967798;28;20507;-68
2022/05/23 11:59:25;;;;;;;4.07;2.33;;;;;;;24.49;50.02;99809.38;4967835;28;20085;-68
2022/05/23 12:02:12;;;;;;;3.72;2.60;;;;;;;24.25;49.45;99811.28;4967798;28;20085;-68
2022/05/23 12:04:40;;;;;;;5.35;2.50;;;;;;;23.97;48.17;99800.91;4967880;28;20030;-68
2022/05/23 12:07:05;;;;;;;5.43;2.47;;;;;;;23.97;47.55;99803.53;4967652;28;20027;-67
2022/05/23 12:09:34;;;;;;;3.72;2.47;;;;;;;23.95;48.89;99805.38;4968252;28;20491;-68
2022/05/23 12:12:43;;;;;;;4.85;2.20;;;;;;;23.89;49.86;99799.47;4968012;28;20019;-68
2022/05/23 12:15:09;;;;;;;3.55;1.73;;;;;;;23.81;51.00;99802.44;4957316;28;20039;-68
2022/05/23 12:17:35;;;;;;;3.50;2.13;;;;;;;23.65;49.64;99800.41;4967246;28;20022;-68
2022/05/23 12:20:21;;;;;;;3.45;1.73;;;;;;;23.53;50.89;99790.31;4967466;28;20066;-68
2022/05/23 12:23:55;;;;;;;4.78;1.83;;;;;;;23.44;51.50;99791.53;4967598;28;20055;-68
2022/05/23 12:26:29;;;;;;;4.82;1.83;;;;;;;23.33;50.92;99791.91;4926621;29;20047;-68
2022/05/23 12:29:19;;;;;;;4.25;1.73;;;;;;;23.31;51.11;99791.97;4944277;28;20038;-69